createdAt,value
2018-05-14T08:33:38.755Z,1280.00
2018-05-14T08:34:38.665Z,1264.00
2018-05-14T08:36:31.744Z,1256.00
2018-05-14T08:37:31.740Z,1216.00
2018-05-14T08:39:24.837Z,1120.00
2018-05-14T08:40:24.847Z,1108.00
2018-05-14T08:42:17.962Z,1052.00
2018-05-14T08:43:17.952Z,1032.00
2018-05-14T08:45:11.343Z,1008.00
2018-05-14T08:46:11.047Z,992.00
2018-05-14T08:47:11.070Z,1000.00
2018-05-14T08:48:11.099Z,996.00
2018-05-14T08:49:11.124Z,1008.00
2018-05-14T08:50:11.140Z,1000.00
2018-05-14T08:51:11.166Z,992.00
2018-05-14T08:52:11.199Z,988.00
2018-05-14T08:53:11.228Z,992.00
2018-05-14T08:54:11.259Z,992.00
2018-05-14T08:55:11.269Z,980.00
2018-05-14T08:56:11.289Z,984.00
2018-05-14T08:57:11.313Z,980.00
2018-05-14T08:58:11.354Z,924.00
2018-05-14T08:59:11.367Z,976.00
2018-05-14T09:00:11.435Z,996.00
2018-05-14T09:01:11.529Z,968.00
2018-05-14T09:02:11.441Z,956.00
2018-05-14T09:03:11.481Z,964.00
2018-05-14T09:04:11.493Z,960.00
2018-05-14T09:05:11.518Z,948.00
2018-05-14T09:06:11.540Z,960.00
2018-05-14T09:07:11.619Z,960.00
2018-05-14T09:08:11.591Z,948.00
2018-05-14T09:09:11.616Z,944.00
2018-05-14T09:10:11.690Z,912.00
2018-05-14T09:11:11.663Z,924.00
2018-05-14T09:12:11.693Z,932.00
2018-05-14T09:13:11.729Z,932.00
2018-05-14T09:14:11.773Z,944.00
2018-05-14T09:15:11.866Z,940.00
2018-05-14T09:16:11.809Z,936.00
2018-05-14T09:17:11.821Z,936.00
2018-05-14T09:18:11.845Z,928.00
2018-05-14T09:19:11.874Z,916.00
2018-05-14T09:20:11.900Z,924.00
2018-05-14T09:21:11.928Z,920.00
2018-05-14T09:22:12.004Z,916.00
2018-05-14T09:23:11.987Z,916.00
2018-05-14T09:24:12.001Z,912.00
2018-05-14T09:25:12.041Z,908.00
2018-05-14T09:26:12.055Z,904.00
2018-05-14T09:27:12.072Z,892.00
2018-05-14T09:28:12.107Z,908.00
2018-05-14T09:29:12.146Z,900.00
2018-05-14T09:30:12.238Z,884.00
2018-05-14T09:31:12.188Z,872.00
2018-05-14T09:32:12.213Z,828.00
2018-05-14T09:33:12.255Z,876.00
2018-05-14T09:34:12.264Z,900.00
2018-05-14T09:35:12.286Z,900.00
2018-05-14T09:36:12.313Z,892.00
2018-05-14T09:37:12.372Z,892.00
2018-05-14T09:38:12.382Z,908.00
2018-05-14T09:39:12.407Z,904.00
2018-05-14T09:40:12.434Z,900.00
2018-05-14T09:41:12.451Z,900.00
2018-05-14T09:42:12.506Z,896.00
2018-05-14T09:43:12.513Z,892.00
2018-05-14T09:44:12.549Z,888.00
2018-05-14T09:45:12.554Z,888.00
2018-05-14T09:46:12.584Z,880.00
2018-05-14T09:47:12.621Z,884.00
2018-05-14T09:48:12.626Z,880.00
2018-05-14T09:49:12.681Z,876.00
2018-05-14T09:50:12.690Z,876.00
2018-05-14T09:51:12.704Z,872.00
2018-05-14T09:52:12.773Z,868.00
2018-05-14T09:53:12.793Z,864.00
2018-05-14T09:54:13.446Z,860.00
2018-05-14T09:55:12.831Z,860.00
2018-05-14T09:56:12.841Z,852.00
2018-05-14T09:57:12.950Z,852.00
2018-05-14T09:58:12.882Z,848.00
2018-05-14T09:59:12.988Z,848.00
2018-05-14T10:00:12.957Z,848.00
2018-05-14T10:01:12.968Z,844.00
2018-05-14T10:02:13.018Z,848.00
2018-05-14T10:03:13.039Z,848.00
2018-05-14T10:04:13.943Z,844.00
2018-05-14T10:05:13.103Z,844.00
2018-05-14T10:06:13.101Z,844.00
2018-05-14T10:07:13.117Z,840.00
2018-05-14T10:08:13.174Z,836.00
2018-05-14T10:09:13.185Z,840.00
2018-05-14T10:10:13.199Z,840.00
2018-05-14T10:11:13.272Z,828.00
2018-05-14T10:12:13.254Z,828.00
2018-05-14T10:13:13.275Z,832.00
2018-05-14T10:14:13.312Z,820.00
2018-05-14T10:15:13.334Z,812.00
2018-05-14T10:16:13.629Z,808.00
2018-05-14T10:17:13.427Z,804.00
2018-05-14T10:18:13.407Z,800.00
2018-05-14T10:19:13.562Z,804.00
2018-05-14T10:20:13.471Z,804.00
2018-05-14T10:21:13.496Z,796.00
2018-05-14T10:22:13.552Z,796.00
2018-05-14T10:23:13.565Z,788.00
2018-05-14T10:24:13.569Z,784.00
2018-05-14T10:25:13.600Z,784.00
2018-05-14T10:26:13.623Z,788.00
2018-05-14T10:27:13.652Z,788.00
2018-05-14T10:28:13.672Z,792.00
2018-05-14T10:29:13.707Z,788.00
2018-05-14T10:30:13.729Z,460.00
2018-05-14T10:31:13.756Z,776.00
2018-05-14T10:32:13.777Z,772.00
2018-05-14T10:33:13.804Z,772.00
2018-05-14T10:34:13.837Z,772.00
2018-05-14T10:35:13.857Z,772.00
2018-05-14T10:36:13.924Z,776.00
2018-05-14T10:37:13.906Z,776.00
2018-05-14T10:38:13.937Z,772.00
2018-05-14T10:39:13.962Z,764.00
2018-05-14T10:40:13.990Z,760.00
2018-05-14T10:41:14.018Z,760.00
2018-05-14T10:42:14.039Z,764.00
2018-05-14T10:43:14.066Z,756.00
2018-05-14T10:44:14.093Z,764.00
2018-05-14T10:45:14.119Z,764.00
2018-05-14T10:46:14.146Z,764.00
2018-05-14T10:47:14.198Z,760.00
2018-05-14T10:48:14.196Z,760.00
2018-05-14T10:49:14.226Z,756.00
2018-05-14T10:50:14.266Z,752.00
2018-05-14T10:51:14.278Z,752.00
2018-05-14T10:52:14.306Z,752.00
2018-05-14T10:53:14.329Z,744.00
2018-05-14T10:54:14.355Z,752.00
2018-05-14T10:55:14.429Z,744.00
2018-05-14T10:56:14.412Z,744.00
2018-05-14T10:57:14.442Z,744.00
2018-05-14T10:58:14.459Z,732.00
2018-05-14T10:59:14.484Z,744.00
2018-05-14T11:00:14.517Z,744.00
2018-05-14T11:01:14.552Z,748.00
2018-05-14T11:02:14.615Z,748.00
2018-05-14T11:03:14.592Z,740.00
2018-05-14T11:04:14.619Z,744.00
2018-05-14T11:05:14.645Z,736.00
2018-05-14T11:06:14.671Z,732.00
2018-05-14T11:07:14.697Z,736.00
2018-05-14T11:08:14.723Z,736.00
2018-05-14T11:09:14.751Z,716.00
2018-05-14T11:10:14.778Z,716.00
2018-05-14T11:11:14.802Z,720.00
2018-05-14T11:12:14.827Z,724.00
2018-05-14T11:13:14.854Z,724.00
2018-05-14T11:14:14.881Z,720.00
2018-05-14T11:15:14.922Z,724.00
2018-05-14T11:16:14.941Z,732.00
2018-05-14T11:17:14.959Z,728.00
2018-05-14T11:18:15.003Z,724.00
2018-05-14T11:19:15.039Z,724.00
2018-05-14T11:20:15.039Z,720.00
2018-05-14T11:21:15.063Z,724.00
2018-05-14T11:22:15.097Z,724.00
2018-05-14T11:23:15.119Z,724.00
2018-05-14T11:24:15.152Z,720.00
2018-05-14T11:25:15.172Z,716.00
2018-05-14T11:26:15.224Z,720.00
2018-05-14T11:27:15.218Z,712.00
2018-05-14T11:28:15.256Z,716.00
2018-05-14T11:29:15.284Z,716.00
2018-05-14T11:30:15.301Z,716.00
2018-05-14T11:31:15.346Z,720.00
2018-05-14T11:32:15.352Z,720.00
2018-05-14T11:33:15.380Z,720.00
2018-05-14T11:34:15.409Z,708.00
2018-05-14T11:35:15.476Z,680.00
2018-05-14T11:36:15.474Z,700.00
2018-05-14T11:37:15.505Z,708.00
2018-05-14T11:38:15.539Z,712.00
2018-05-14T11:39:15.543Z,712.00
2018-05-14T11:40:15.564Z,704.00
2018-05-14T11:41:15.594Z,700.00
2018-05-14T11:42:15.616Z,700.00
2018-05-14T11:43:15.642Z,704.00
2018-05-14T11:44:15.670Z,700.00
2018-05-14T11:45:15.696Z,684.00
2018-05-14T11:46:15.732Z,684.00
2018-05-14T11:47:15.746Z,688.00
2018-05-14T11:48:15.775Z,688.00
2018-05-14T11:49:15.799Z,684.00
2018-05-14T11:50:15.824Z,684.00
2018-05-14T11:51:15.858Z,688.00
2018-05-14T11:52:15.879Z,684.00
2018-05-14T11:53:15.906Z,684.00
2018-05-14T11:54:15.932Z,684.00
2018-05-14T11:55:15.961Z,692.00
2018-05-14T11:56:15.986Z,700.00
2018-05-14T11:57:16.013Z,700.00
2018-05-14T11:58:16.042Z,700.00
2018-05-14T11:59:16.063Z,704.00
2018-05-14T12:00:16.113Z,704.00
2018-05-14T12:01:16.117Z,712.00
2018-05-14T12:02:16.143Z,708.00
2018-05-14T12:03:16.180Z,716.00
2018-05-14T12:04:16.201Z,732.00
2018-05-14T12:05:16.226Z,732.00
2018-05-14T12:06:16.248Z,468.00
2018-05-14T12:07:16.272Z,772.00
2018-05-14T12:08:16.325Z,784.00
2018-05-14T12:09:16.328Z,768.00
2018-05-14T12:10:16.356Z,680.00
2018-05-14T12:11:16.386Z,500.00
2018-05-14T12:12:16.453Z,500.00
2018-05-14T12:13:16.460Z,708.00
2018-05-14T12:14:16.465Z,508.00
2018-05-14T12:15:16.500Z,692.00
2018-05-14T12:16:16.536Z,488.00
2018-05-14T12:17:16.581Z,756.00
2018-05-14T12:18:16.577Z,736.00
2018-05-14T12:19:16.587Z,724.00
2018-05-14T12:20:16.644Z,716.00
2018-05-14T12:21:16.658Z,728.00
2018-05-14T12:22:16.666Z,728.00
2018-05-14T12:23:16.699Z,744.00
2018-05-14T12:24:16.716Z,756.00
2018-05-14T12:25:16.745Z,768.00
2018-05-14T12:26:16.803Z,764.00
2018-05-14T12:27:16.826Z,804.00
2018-05-14T12:28:16.844Z,560.00
2018-05-14T12:29:16.866Z,548.00
2018-05-14T12:30:16.875Z,692.00
2018-05-14T12:31:16.920Z,812.00
2018-05-14T12:32:16.962Z,800.00
2018-05-14T12:33:16.954Z,784.00
2018-05-14T12:34:16.999Z,772.00
2018-05-14T12:35:17.007Z,776.00
2018-05-14T12:36:17.042Z,776.00
2018-05-14T12:37:17.059Z,756.00
2018-05-14T12:38:17.084Z,756.00
2018-05-14T12:39:17.112Z,772.00
2018-05-14T12:40:17.183Z,788.00
2018-05-14T12:41:17.166Z,804.00
2018-05-14T12:42:17.196Z,792.00
2018-05-14T12:43:17.226Z,792.00
2018-05-14T12:44:17.247Z,796.00
2018-05-14T12:45:17.285Z,528.00
2018-05-14T12:46:17.359Z,508.00
2018-05-14T12:47:17.357Z,508.00
2018-05-14T12:48:17.356Z,736.00
2018-05-14T12:49:17.384Z,512.00
2018-05-14T12:50:17.415Z,516.00
2018-05-14T12:51:17.496Z,540.00
2018-05-14T12:52:17.466Z,572.00
2018-05-14T12:53:17.517Z,608.00
2018-05-14T12:54:17.529Z,640.00
2018-05-14T12:55:17.554Z,656.00
2018-05-14T12:56:17.571Z,648.00
2018-05-14T12:57:17.624Z,640.00
2018-05-14T12:58:17.613Z,648.00
2018-05-14T12:59:17.642Z,684.00
2018-05-14T13:00:17.670Z,692.00
2018-05-14T13:01:17.700Z,696.00
2018-05-14T13:02:17.731Z,912.00
2018-05-14T13:03:17.787Z,904.00
2018-05-14T13:04:17.774Z,900.00
2018-05-14T13:05:17.810Z,880.00
2018-05-14T13:06:17.833Z,884.00
2018-05-14T13:07:17.871Z,856.00
2018-05-14T13:08:17.882Z,716.00
2018-05-14T13:09:17.907Z,816.00
2018-05-14T13:10:17.935Z,916.00
2018-05-14T13:11:17.958Z,896.00
2018-05-14T13:12:17.988Z,896.00
2018-05-14T13:13:18.023Z,900.00
2018-05-14T13:14:18.081Z,892.00
2018-05-14T13:15:18.083Z,868.00
2018-05-14T13:16:18.111Z,876.00
2018-05-14T13:17:18.130Z,872.00
2018-05-14T13:18:18.155Z,860.00
2018-05-14T13:19:18.225Z,848.00
2018-05-14T13:20:18.199Z,740.00
2018-05-14T13:21:18.229Z,636.00
2018-05-14T13:22:18.256Z,848.00
2018-05-14T13:23:18.281Z,652.00
2018-05-14T13:24:18.307Z,696.00
2018-05-14T13:25:18.335Z,668.00
2018-05-14T13:26:18.466Z,876.00
2018-05-14T13:27:18.389Z,676.00
2018-05-14T13:28:18.419Z,684.00
2018-05-14T13:29:18.440Z,936.00
2018-05-14T13:30:18.468Z,856.00
2018-05-14T13:31:18.494Z,744.00
2018-05-14T13:32:18.525Z,760.00
2018-05-14T13:33:18.547Z,888.00
2018-05-14T13:34:18.569Z,960.00
2018-05-14T13:35:18.602Z,664.00
2018-05-14T13:36:18.633Z,624.00
2018-05-14T13:37:18.667Z,636.00
2018-05-14T13:38:18.686Z,744.00
2018-05-14T13:39:18.713Z,668.00
2018-05-14T13:40:18.736Z,584.00
2018-05-14T13:41:18.757Z,576.00
2018-05-14T13:42:18.791Z,580.00
2018-05-14T13:43:18.820Z,580.00
2018-05-14T13:44:18.860Z,592.00
2018-05-14T13:45:18.870Z,584.00
